メインページ
METAR-TAF:

METAR-TAF

空港 :

デンバー国際空港

デンバー, コロラド州, アメリカ合衆国

緯度: 39-49-58N, 経度: 104-39-27W, 海抜: 1655m

現時点の気象観測

当レポートは1時間4分前の02:53(UTC)に作成
の風 13kt
気温 18°C
湿度 39%
気圧 1015 hPa
視程: 16.1km
高度12000ftの雲はほとんどない
高度16000ftの雲は散在している
高度22000ftの千切れ雲あり

METAR: KDEN 220253Z 19013KT 10SM FEW120 SCT160 BKN220 18/04 A2997 RMK AO2 SLP095 T01780039 50006

時間: 21:57 (03:57 UTC)

予報

当レポートは1時間26分前の02:31(UTC)に作成
予報は22日の 03時(UTC)から 23日の 06時(UTC)まで有効
の風 10kt
視程: 10km
高度14000ftの千切れ雲あり
22日の 0700時(UTC)から
南/南西の風 10kt
視程: 10km
高度14000ftの雲は散在している
高度22000ftの千切れ雲あり
22日の 1600時(UTC)から
南/南東の風 8kt
視程: 10km
高度14000ftの雲はほとんどない
22日の 2100時(UTC)から
南東の風 14kt、最大22ktの突風を伴う
視程: 10km
高度10000ftの雲は散在している
高度20000ftの千切れ雲あり
23日の 0300時(UTC)から
の風 14kt
視程: 10km
高度10000ftの雲はほとんどない

TAF: KDEN 220231Z 2203/2306 18010KT P6SM BKN140 FM220700 20010KT P6SM SCT140 BKN220 FM221600 15008KT P6SM FEW140 FM222100 14014G22KT P6SM SCT100 BKN200 FM230300 18014KT P6SM FEW100

4,000以上の空港の気象観測と天気予報(METAR報とTAF報)

利用可能な観測所は地図上に黄色い丸と赤い丸で示す。

丸の上にカーソルを重ねると観測所名を参照できる。

次にクリックすると気象観測と天気予報を参照できる。

マップの切り替え:黒色「×」印の緑ボタンをクリックして拡大、「-」印の緑ボタンをクリックして縮小、緑色の三角印をクリックして隣りの地図に切り替え


METAR-TAF: